Time;durP1;ratioP1;P1;durP2;ratioP2;P2;SDS_P1;SDS_P2;PMS_P1;PMS_P2;Temp;Humidity;BMP_temperature;BMP_pressure;BME280_temperature;BME280_humidity;BME280_pressure;Samples;Min_cycle;Max_cycle;Signal;HPM_P1;HPM_P2
2021/08/22 00:01:07;;;;;;;4.80;3.70;;;24.30;64.70;;;;;;4917884;29;20094;-80
2021/08/22 00:03:33;;;;;;;5.13;4.00;;;24.30;64.80;;;;;;4902262;29;20488;-80
2021/08/22 00:05:58;;;;;;;4.70;3.65;;;24.30;64.90;;;;;;4886445;29;20059;-81
2021/08/22 00:08:24;;;;;;;5.07;3.95;;;24.30;64.90;;;;;;4901867;29;20032;-79
2021/08/22 00:10:50;;;;;;;4.43;3.63;;;24.30;65.00;;;;;;4888170;29;20033;-80
2021/08/22 00:13:16;;;;;;;4.35;3.35;;;24.20;65.00;;;;;;4917413;29;20477;-80
2021/08/22 00:15:43;;;;;;;4.72;3.60;;;24.20;65.00;;;;;;4917961;29;20033;-80
2021/08/22 00:18:09;;;;;;;5.38;3.90;;;24.20;65.10;;;;;;4917063;29;20123;-80
2021/08/22 00:20:34;;;;;;;5.07;3.85;;;24.20;65.00;;;;;;4917606;29;20115;-81
2021/08/22 00:23:00;;;;;;;4.65;3.70;;;24.20;65.10;;;;;;4917178;29;20033;-82
2021/08/22 00:25:26;;;;;;;5.57;4.13;;;24.10;65.00;;;;;;4885561;29;20036;-80
2021/08/22 00:27:52;;;;;;;5.38;4.30;;;24.10;65.10;;;;;;4902193;29;20491;-80
2021/08/22 00:30:17;;;;;;;5.78;4.15;;;24.10;65.10;;;;;;4918367;29;20032;-80
2021/08/22 00:32:43;;;;;;;5.57;4.22;;;24.10;65.20;;;;;;4918426;29;20024;-80
2021/08/22 00:35:10;;;;;;;6.05;4.40;;;24.10;65.20;;;;;;4885936;29;20048;-80
2021/08/22 00:37:35;;;;;;;5.30;4.15;;;24.00;65.20;;;;;;4916923;29;20111;-82
2021/08/22 00:40:01;;;;;;;5.18;4.18;;;24.00;65.20;;;;;;4898746;29;20184;-81
2021/08/22 00:42:32;;;;;;;5.03;3.80;;;24.00;65.30;;;;;;4915401;29;20033;-82
2021/08/22 00:44:59;;;;;;;5.85;4.18;;;24.00;65.30;;;;;;4911574;29;20050;-82
2021/08/22 00:47:25;;;;;;;4.97;3.83;;;24.00;65.30;;;;;;4900709;29;20036;-82
2021/08/22 00:49:51;;;;;;;5.18;4.15;;;24.00;65.40;;;;;;4885986;29;20492;-82
2021/08/22 00:52:17;;;;;;;5.20;4.25;;;24.00;65.40;;;;;;4917438;29;20072;-81
2021/08/22 00:54:43;;;;;;;5.18;4.30;;;24.00;65.40;;;;;;4917100;29;20075;-81
2021/08/22 00:57:12;;;;;;;5.03;3.85;;;23.90;65.40;;;;;;4898359;29;20481;-82
2021/08/22 00:59:39;;;;;;;5.15;4.10;;;23.90;65.40;;;;;;4915567;29;20507;-81
2021/08/22 01:02:06;;;;;;;5.57;4.32;;;23.90;65.50;;;;;;4917144;29;20555;-82
2021/08/22 01:04:51;;;;;;;5.65;4.28;;;23.80;65.50;;;;;;4916712;29;20523;-82
2021/08/22 01:07:45;;;;;;;5.10;4.13;;;23.80;65.60;;;;;;4897802;29;20164;-81
2021/08/22 01:10:16;;;;;;;5.00;3.90;;;23.80;65.60;;;;;;4895277;29;20119;-81
2021/08/22 01:13:07;;;;;;;5.60;4.10;;;23.80;65.50;;;;;;4916433;29;20032;-82
2021/08/22 01:15:36;;;;;;;4.30;3.58;;;23.80;65.70;;;;;;4896108;29;20048;-81
2021/08/22 01:18:05;;;;;;;5.18;3.95;;;23.80;65.60;;;;;;4910608;29;20032;-81
2021/08/22 01:20:42;;;;;;;6.25;4.88;;;23.70;65.60;;;;;;4900956;29;20031;-82
2021/08/22 01:23:09;;;;;;;5.53;4.60;;;23.70;65.70;;;;;;4920840;29;20020;-82
2021/08/22 01:25:37;;;;;;;5.40;4.03;;;23.70;65.70;;;;;;4897699;29;20037;-82
2021/08/22 01:28:05;;;;;;;6.05;4.72;;;23.70;65.70;;;;;;4910503;29;20536;-82
2021/08/22 01:30:37;;;;;;;5.25;4.43;;;23.70;65.80;;;;;;4900212;29;20103;-81
2021/08/22 01:33:08;;;;;;;5.78;4.55;;;23.70;65.80;;;;;;4917364;29;20028;-81
2021/08/22 01:35:34;;;;;;;5.35;4.55;;;23.60;65.70;;;;;;4915976;29;20028;-83
2021/08/22 01:38:01;;;;;;;5.63;4.68;;;23.60;65.80;;;;;;4917289;29;20382;-81
2021/08/22 01:40:27;;;;;;;5.80;4.90;;;23.60;65.80;;;;;;4900178;29;20047;-82
2021/08/22 01:42:53;;;;;;;5.97;4.82;;;23.60;65.80;;;;;;4917242;29;20051;-81
2021/08/22 01:45:20;;;;;;;6.13;5.22;;;23.60;65.80;;;;;;4915671;29;20042;-82
2021/08/22 01:47:50;;;;;;;6.10;5.10;;;23.60;65.90;;;;;;4900159;29;20035;-82
2021/08/22 01:50:18;;;;;;;6.20;4.90;;;23.60;66.00;;;;;;4915488;29;20028;-82
2021/08/22 01:52:45;;;;;;;6.55;5.18;;;23.60;65.90;;;;;;4916450;29;20523;-82
2021/08/22 01:55:11;;;;;;;5.53;4.75;;;23.60;66.00;;;;;;4915380;29;20036;-83
2021/08/22 01:57:41;;;;;;;6.28;5.05;;;23.50;65.90;;;;;;4899763;29;20032;-81
2021/08/22 02:00:08;;;;;;;6.60;5.30;;;23.50;66.00;;;;;;4915605;29;20035;-82
2021/08/22 02:03:04;;;;;;;5.82;5.00;;;23.50;66.00;;;;;;4915651;29;20040;-81
2021/08/22 02:05:32;;;;;;;5.70;4.90;;;23.50;66.00;;;;;;4910145;29;20063;-81
2021/08/22 02:08:00;;;;;;;5.13;4.28;;;23.50;66.00;;;;;;4916335;29;20115;-82
2021/08/22 02:10:31;;;;;;;5.57;4.72;;;23.50;66.10;;;;;;4884564;29;20024;-82
2021/08/22 02:13:01;;;;;;;4.97;4.18;;;23.40;66.70;;;;;;4915582;29;20074;-82
2021/08/22 02:15:41;;;;;;;5.70;4.75;;;23.40;66.10;;;;;;4915006;29;20144;-81
2021/08/22 02:18:15;;;;;;;5.95;4.70;;;23.40;66.10;;;;;;4915151;29;20032;-82
2021/08/22 02:20:42;;;;;;;;;;;23.40;66.10;;;;;;4915927;29;20028;-81
2021/08/22 02:23:08;;;;;;;4.53;3.50;;;23.30;66.00;;;;;;4914565;29;20290;-82
2021/08/22 02:25:36;;;;;;;5.22;4.30;;;23.40;66.10;;;;;;4886379;29;20052;-81
2021/08/22 02:28:02;;;;;;;5.22;4.22;;;23.30;66.10;;;;;;4897357;29;20485;-81
2021/08/22 02:30:34;;;;;;;5.13;4.25;;;23.30;66.10;;;;;;4894387;29;20047;-82
2021/08/22 02:33:04;;;;;;;5.22;4.13;;;23.20;66.20;;;;;;4895857;29;20071;-81
2021/08/22 02:35:30;;;;;;;5.43;4.32;;;23.30;66.30;;;;;;4896012;29;20071;-81
2021/08/22 02:37:56;;;;;;;5.03;4.13;;;23.20;66.20;;;;;;4896016;29;20497;-81
2021/08/22 02:40:23;;;;;;;5.45;4.50;;;23.20;66.20;;;;;;4914006;29;20039;-81
2021/08/22 02:42:50;;;;;;;5.68;4.30;;;23.20;66.20;;;;;;4914838;29;20028;-81
2021/08/22 02:45:16;;;;;;;5.03;4.03;;;23.20;66.30;;;;;;4914272;29;20096;-83
2021/08/22 02:47:41;;;;;;;5.82;4.55;;;23.20;66.20;;;;;;4898818;29;20484;-81
2021/08/22 02:50:08;;;;;;;5.28;4.25;;;23.20;66.30;;;;;;4914590;29;20446;-81
2021/08/22 02:52:34;;;;;;;5.32;4.43;;;23.20;66.30;;;;;;4895605;29;20037;-81
2021/08/22 02:55:00;;;;;;;5.80;4.15;;;23.20;66.30;;;;;;4891220;29;20382;-81
2021/08/22 02:57:25;;;;;;;5.28;4.15;;;23.20;66.30;;;;;;4890743;29;20056;-81
2021/08/22 02:59:51;;;;;;;5.88;4.35;;;23.10;66.20;;;;;;4898809;29;20404;-81
2021/08/22 03:02:17;;;;;;;5.38;4.32;;;23.20;66.30;;;;;;4915217;29;20040;-81
2021/08/22 03:04:42;;;;;;;5.57;4.32;;;23.10;66.30;;;;;;4898479;29;20388;-80
2021/08/22 03:07:08;;;;;;;5.32;4.13;;;23.10;66.30;;;;;;4896254;29;20176;-81
2021/08/22 03:09:34;;;;;;;5.68;4.63;;;23.10;66.30;;;;;;4914599;29;20036;-82
2021/08/22 03:12:00;;;;;;;5.45;4.15;;;23.10;66.30;;;;;;4892252;29;20037;-81
2021/08/22 03:14:26;;;;;;;5.50;4.63;;;23.10;66.30;;;;;;4913760;29;20032;-80
2021/08/22 03:16:52;;;;;;;5.78;4.65;;;23.10;66.40;;;;;;4882484;29;20123;-81
2021/08/22 03:19:19;;;;;;;5.13;4.15;;;23.00;66.30;;;;;;4913973;29;20052;-81
2021/08/22 03:21:45;;;;;;;5.43;4.22;;;23.10;66.40;;;;;;4914111;29;20032;-81
2021/08/22 03:24:12;;;;;;;5.32;4.05;;;23.00;66.40;;;;;;4895645;29;20109;-81
2021/08/22 03:26:39;;;;;;;5.25;3.92;;;23.00;66.40;;;;;;4915088;29;20039;-81
2021/08/22 03:29:05;;;;;;;5.40;4.25;;;23.00;66.40;;;;;;4895340;29;20039;-83
2021/08/22 03:31:31;;;;;;;5.80;4.10;;;22.90;66.40;;;;;;4881943;29;20032;-81
2021/08/22 03:33:57;;;;;;;5.40;4.32;;;23.00;66.50;;;;;;4913845;29;20561;-81
2021/08/22 03:36:23;;;;;;;5.25;4.18;;;22.90;66.40;;;;;;4913718;29;20039;-82
2021/08/22 03:38:49;;;;;;;5.90;4.57;;;22.90;66.40;;;;;;4914334;29;20036;-82
2021/08/22 03:41:15;;;;;;;5.15;3.95;;;22.90;66.40;;;;;;4883450;29;20481;-81
2021/08/22 03:43:41;;;;;;;5.43;4.43;;;22.90;66.50;;;;;;4913873;29;20039;-81
2021/08/22 03:46:06;;;;;;;5.60;3.97;;;22.90;66.50;;;;;;4898275;29;20036;-81
2021/08/22 03:48:32;;;;;;;5.53;4.25;;;22.90;66.50;;;;;;4913744;29;20047;-81
2021/08/22 03:50:58;;;;;;;6.88;5.05;;;22.80;66.50;;;;;;4898653;29;20092;-81
2021/08/22 03:53:24;;;;;;;5.47;4.50;;;22.80;67.10;;;;;;4915216;29;20122;-84
2021/08/22 03:55:49;;;;;;;5.85;4.25;;;22.80;66.50;;;;;;4914189;29;20043;-81
2021/08/22 03:58:15;;;;;;;5.22;4.13;;;22.80;66.50;;;;;;4883659;29;20441;-81
2021/08/22 04:00:41;;;;;;;5.38;4.40;;;22.80;66.50;;;;;;4897555;29;20472;-82
2021/08/22 04:03:07;;;;;;;5.90;4.72;;;22.80;66.50;;;;;;4915353;29;20369;-80
2021/08/22 04:05:52;;;;;;;5.70;4.60;;;22.80;66.50;;;;;;4914253;29;20131;-81
2021/08/22 04:08:24;;;;;;;6.25;4.55;;;22.80;66.60;;;;;;4898373;29;20461;-81
2021/08/22 04:10:50;;;;;;;6.13;4.72;;;22.70;66.50;;;;;;4916768;29;20029;-81
2021/08/22 04:13:16;;;;;;;6.28;4.60;;;22.70;66.50;;;;;;4899483;29;20028;-79
2021/08/22 04:15:42;;;;;;;6.25;5.03;;;22.70;66.50;;;;;;4915296;29;20043;-82
2021/08/22 04:18:08;;;;;;;5.55;4.65;;;22.70;66.50;;;;;;4915664;29;20029;-81
2021/08/22 04:20:34;;;;;;;6.13;4.80;;;22.60;66.50;;;;;;4900134;29;20492;-81
2021/08/22 04:23:00;;;;;;;5.78;4.60;;;22.70;66.60;;;;;;4899743;29;20570;-80
2021/08/22 04:25:26;;;;;;;6.10;4.50;;;22.60;66.60;;;;;;4913809;29;20504;-81
2021/08/22 04:27:51;;;;;;;5.80;4.63;;;22.60;66.60;;;;;;4890680;29;20046;-81
2021/08/22 04:30:17;;;;;;;5.43;4.60;;;22.60;67.00;;;;;;4893140;29;20495;-81
2021/08/22 04:32:43;;;;;;;6.10;5.00;;;22.60;66.60;;;;;;4917705;29;20048;-81
2021/08/22 04:35:09;;;;;;;6.70;5.20;;;22.60;66.60;;;;;;4917404;29;20048;-81
2021/08/22 04:37:36;;;;;;;6.50;4.97;;;22.60;66.60;;;;;;4901606;29;20024;-82
2021/08/22 04:40:02;;;;;;;6.18;4.90;;;22.50;66.60;;;;;;4895917;29;20024;-82
2021/08/22 04:42:27;;;;;;;7.32;5.32;;;22.60;66.70;;;;;;4920806;29;20021;-82
2021/08/22 04:44:53;;;;;;;6.40;5.53;;;22.50;66.60;;;;;;4917061;29;20124;-82
2021/08/22 04:47:19;;;;;;;7.63;5.72;;;22.50;66.70;;;;;;4890255;29;20064;-82
2021/08/22 04:49:45;;;;;;;6.43;4.88;;;22.50;66.70;;;;;;4897794;29;20044;-82
2021/08/22 04:52:10;;;;;;;7.07;5.63;;;22.50;66.70;;;;;;4900884;29;20040;-81
2021/08/22 04:54:36;;;;;;;6.88;5.50;;;22.50;66.70;;;;;;4894734;29;20036;-81
2021/08/22 04:57:02;;;;;;;7.38;5.75;;;22.50;66.70;;;;;;4914581;29;20378;-81
2021/08/22 04:59:28;;;;;;;7.25;5.70;;;22.50;66.70;;;;;;4916821;29;20028;-81
2021/08/22 05:01:53;;;;;;;7.13;5.78;;;22.40;66.70;;;;;;4916687;29;20036;-80
2021/08/22 05:04:19;;;;;;;6.68;5.50;;;22.40;66.70;;;;;;4900434;29;20048;-81
2021/08/22 05:06:45;;;;;;;7.40;6.00;;;22.40;66.80;;;;;;4916662;29;20036;-81
2021/08/22 05:09:10;;;;;;;6.97;5.47;;;22.40;66.80;;;;;;4900811;29;20040;-81
2021/08/22 05:11:36;;;;;;;7.45;6.20;;;22.40;66.80;;;;;;4915958;29;20028;-81
2021/08/22 05:14:02;;;;;;;8.43;6.53;;;22.40;66.80;;;;;;4917818;29;20040;-80
2021/08/22 05:16:28;;;;;;;7.00;5.90;;;22.30;66.80;;;;;;4917144;29;20065;-82
2021/08/22 05:18:53;;;;;;;7.63;6.00;;;22.30;66.80;;;;;;4900457;29;20835;-81
2021/08/22 05:21:19;;;;;;;7.65;5.97;;;22.40;66.90;;;;;;4916513;29;20039;-81
2021/08/22 05:23:45;;;;;;;7.95;6.28;;;22.30;66.90;;;;;;4916626;29;20127;-81
2021/08/22 05:26:10;;;;;;;7.28;6.10;;;22.30;66.90;;;;;;4916243;29;20495;-80
2021/08/22 05:28:36;;;;;;;7.60;6.57;;;22.30;67.00;;;;;;4899980;29;20378;-81
2021/08/22 05:31:02;;;;;;;8.50;6.47;;;22.30;67.00;;;;;;4916385;29;20036;-80
2021/08/22 05:33:28;;;;;;;7.82;6.28;;;22.30;67.00;;;;;;4900645;29;20028;-80
2021/08/22 05:35:53;;;;;;;7.15;5.95;;;22.20;66.90;;;;;;4915806;29;20056;-81
2021/08/22 05:38:19;;;;;;;8.23;6.07;;;22.20;67.00;;;;;;4885239;29;20028;-81
2021/08/22 05:40:45;;;;;;;8.02;6.07;;;22.20;67.10;;;;;;4899577;29;20047;-80
2021/08/22 05:43:11;;;;;;;7.97;6.70;;;22.20;67.00;;;;;;4916166;29;20036;-81
2021/08/22 05:45:36;;;;;;;7.47;6.32;;;22.20;67.00;;;;;;4900107;29;20035;-80
2021/08/22 05:48:02;;;;;;;9.02;6.60;;;22.20;67.10;;;;;;4883938;29;20047;-81
2021/08/22 05:50:28;;;;;;;8.68;6.40;;;22.20;67.10;;;;;;4897069;29;20119;-81
2021/08/22 05:52:54;;;;;;;8.23;6.68;;;22.20;67.20;;;;;;4912703;29;20111;-81
2021/08/22 05:55:20;;;;;;;7.93;6.65;;;22.10;67.10;;;;;;4889491;29;20037;-81
2021/08/22 05:57:45;;;;;;;8.50;6.88;;;22.20;67.20;;;;;;4873697;29;20061;-80
2021/08/22 06:00:12;;;;;;;8.20;6.90;;;22.10;67.20;;;;;;4898177;29;20033;-80
2021/08/22 06:02:40;;;;;;;8.63;7.03;;;22.10;67.30;;;;;;4900242;29;20028;-81
2021/08/22 06:05:06;;;;;;;7.72;6.35;;;22.10;67.30;;;;;;4881484;29;20040;-81
2021/08/22 06:07:32;;;;;;;8.40;6.63;;;22.10;67.30;;;;;;4900115;29;20060;-80
2021/08/22 06:09:59;;;;;;;8.48;6.85;;;22.10;67.30;;;;;;4915093;29;20036;-81
2021/08/22 06:12:25;;;;;;;8.25;6.55;;;22.10;67.30;;;;;;4898416;29;20028;-80
2021/08/22 06:14:50;;;;;;;8.38;6.78;;;22.10;67.90;;;;;;4899773;29;20040;-81
2021/08/22 06:17:16;;;;;;;8.43;6.85;;;22.10;67.40;;;;;;4915627;29;20039;-81
2021/08/22 06:19:42;;;;;;;8.77;6.90;;;22.10;67.40;;;;;;4891932;29;20040;-80
2021/08/22 06:22:08;;;;;;;9.27;7.22;;;22.10;67.40;;;;;;4899728;29;20039;-81
2021/08/22 06:24:34;;;;;;;8.90;7.10;;;22.10;67.50;;;;;;4915153;29;20063;-81
2021/08/22 06:27:00;;;;;;;9.32;6.90;;;22.10;67.50;;;;;;4894853;29;20057;-81
2021/08/22 06:29:26;;;;;;;9.40;7.18;;;22.10;67.50;;;;;;4914299;29;20099;-81
2021/08/22 06:31:52;;;;;;;9.27;7.68;;;22.10;67.50;;;;;;4915789;29;20437;-80
2021/08/22 06:34:18;;;;;;;8.98;7.88;;;22.10;67.50;;;;;;4914970;29;20043;-82
2021/08/22 06:36:45;;;;;;;10.70;8.05;;;22.10;67.60;;;;;;4914370;29;20531;-81
2021/08/22 06:39:12;;;;;;;9.68;7.82;;;22.10;67.60;;;;;;4916000;29;20040;-81
2021/08/22 06:41:38;;;;;;;8.65;7.43;;;22.10;67.60;;;;;;4890207;29;20040;-81
2021/08/22 06:44:05;;;;;;;8.43;7.20;;;22.10;67.70;;;;;;4915593;29;20036;-81
2021/08/22 06:46:31;;;;;;;9.32;7.50;;;22.10;67.70;;;;;;4883890;29;20032;-81
2021/08/22 06:48:57;;;;;;;9.18;7.47;;;22.10;67.70;;;;;;4906957;29;20115;-81
2021/08/22 06:51:22;;;;;;;9.25;7.75;;;22.10;67.70;;;;;;4915056;29;20581;-82
2021/08/22 06:53:49;;;;;;;8.98;7.15;;;22.10;67.70;;;;;;4883381;29;20046;-81
2021/08/22 06:56:15;;;;;;;8.68;7.53;;;22.10;67.70;;;;;;4896408;29;20123;-81
2021/08/22 06:58:41;;;;;;;9.20;7.85;;;22.10;67.90;;;;;;4873565;29;20454;-82
2021/08/22 07:01:07;;;;;;;10.10;7.35;;;22.10;67.80;;;;;;4888586;29;20047;-81
2021/08/22 07:03:33;;;;;;;9.60;7.50;;;22.10;68.40;;;;;;4903210;29;20028;-81
2021/08/22 07:05:58;;;;;;;9.13;7.57;;;22.10;67.80;;;;;;4915611;29;20075;-80
2021/08/22 07:08:24;;;;;;;8.68;6.88;;;22.10;67.80;;;;;;4915185;29;20051;-81
2021/08/22 07:10:51;;;;;;;8.18;6.85;;;22.10;67.80;;;;;;4914863;29;20528;-80
2021/08/22 07:13:17;;;;;;;8.77;7.55;;;22.10;67.80;;;;;;4914703;29;20028;-80
2021/08/22 07:15:42;;;;;;;8.90;7.45;;;22.10;67.90;;;;;;4895930;29;20103;-81
2021/08/22 07:18:08;;;;;;;8.70;7.28;;;22.10;67.90;;;;;;4883045;29;20686;-81
2021/08/22 07:20:34;;;;;;;8.98;7.50;;;22.10;68.50;;;;;;4914808;29;20032;-81
2021/08/22 07:23:00;;;;;;;8.40;7.20;;;22.10;67.80;;;;;;4914109;29;20039;-81
2021/08/22 07:25:25;;;;;;;8.85;7.20;;;22.10;67.90;;;;;;4914709;29;20032;-81
2021/08/22 07:27:51;;;;;;;8.50;7.00;;;22.10;67.90;;;;;;4914485;29;20067;-81
2021/08/22 07:30:21;;;;;;;8.85;7.50;;;22.10;67.90;;;;;;4895590;29;20040;-81
2021/08/22 07:32:47;;;;;;;8.73;7.55;;;22.10;67.90;;;;;;4910808;29;20036;-81
2021/08/22 07:35:13;;;;;;;9.63;8.00;;;22.10;67.90;;;;;;4883383;29;20161;-81
2021/08/22 07:37:38;;;;;;;8.88;7.75;;;22.10;67.90;;;;;;4915449;29;20115;-81
2021/08/22 07:40:06;;;;;;;9.43;8.15;;;22.10;67.90;;;;;;4914139;29;20035;-80
2021/08/22 07:42:31;;;;;;;9.20;7.47;;;22.10;67.90;;;;;;4898693;29;20043;-81
2021/08/22 07:44:57;;;;;;;8.50;7.55;;;22.10;67.90;;;;;;4898537;29;20044;-80
2021/08/22 07:47:23;;;;;;;8.82;7.55;;;22.10;67.90;;;;;;4898384;29;20503;-80
2021/08/22 07:49:52;;;;;;;8.77;7.10;;;22.10;67.90;;;;;;4887874;29;20060;-83
2021/08/22 07:52:22;;;;;;;8.55;7.40;;;22.10;67.90;;;;;;4897588;29;20039;-81
2021/08/22 07:54:48;;;;;;;8.50;7.10;;;22.10;68.00;;;;;;4914418;29;20040;-80
2021/08/22 07:57:14;;;;;;;8.82;7.20;;;22.10;68.00;;;;;;4898332;29;20051;-81
2021/08/22 07:59:40;;;;;;;7.95;6.53;;;22.10;68.00;;;;;;4914608;29;20027;-81
2021/08/22 08:02:05;;;;;;;8.63;7.35;;;22.10;68.00;;;;;;4895017;29;20041;-81
2021/08/22 08:04:31;;;;;;;8.93;7.88;;;22.10;68.10;;;;;;4901358;29;20036;-81
2021/08/22 08:06:57;;;;;;;8.75;7.32;;;22.10;68.10;;;;;;4917936;29;20043;-80
2021/08/22 08:09:23;;;;;;;8.82;7.13;;;22.10;68.10;;;;;;4917817;29;20039;-81
2021/08/22 08:11:49;;;;;;;7.72;6.90;;;22.10;68.80;;;;;;4871424;29;20036;-81
2021/08/22 08:14:14;;;;;;;8.05;7.25;;;22.10;68.10;;;;;;4898455;29;20136;-82
2021/08/22 08:16:40;;;;;;;8.45;7.03;;;22.10;68.10;;;;;;4898991;29;20080;-80
2021/08/22 08:19:06;;;;;;;8.18;6.85;;;22.10;68.20;;;;;;4894568;29;20466;-82
2021/08/22 08:21:31;;;;;;;7.93;6.55;;;22.10;68.80;;;;;;4917405;29;20044;-81
2021/08/22 08:23:57;;;;;;;10.05;7.55;;;22.10;68.20;;;;;;4902460;29;20064;-80
2021/08/22 08:26:23;;;;;;;8.07;6.30;;;22.10;68.20;;;;;;4917391;29;20032;-80
2021/08/22 08:28:49;;;;;;;7.93;6.85;;;22.20;68.20;;;;;;4901767;29;20047;-82
2021/08/22 08:31:16;;;;;;;8.32;6.53;;;22.20;68.20;;;;;;4898170;29;20040;-79
2021/08/22 08:33:42;;;;;;;8.23;6.85;;;22.20;68.30;;;;;;4901235;29;20083;-81
2021/08/22 08:36:08;;;;;;;8.30;6.57;;;22.20;68.20;;;;;;4917306;29;20040;-81
2021/08/22 08:38:34;;;;;;;8.40;6.78;;;22.20;68.20;;;;;;4885801;29;20723;-81
2021/08/22 08:41:02;;;;;;;7.28;6.13;;;22.30;68.30;;;;;;4902080;29;20760;-81
2021/08/22 08:43:28;;;;;;;7.38;6.50;;;22.30;68.30;;;;;;4901509;29;20115;-81
2021/08/22 08:46:09;;;;;;;7.20;5.95;;;22.30;68.20;;;;;;4901476;29;20507;-79
2021/08/22 08:48:54;;;;;;;7.93;6.32;;;22.30;68.40;;;;;;4900649;29;20485;-83
2021/08/22 08:51:28;;;;;;;7.55;6.28;;;22.30;68.30;;;;;;4903431;29;20079;-81
2021/08/22 08:54:09;;;;;;;7.90;6.63;;;22.40;68.20;;;;;;4916574;29;20040;-82
2021/08/22 08:56:42;;;;;;;7.90;6.72;;;22.40;68.30;;;;;;4902299;29;20029;-83
2021/08/22 08:59:09;;;;;;;7.18;6.43;;;22.40;68.20;;;;;;4910124;29;20548;-81
2021/08/22 09:01:39;;;;;;;7.75;6.40;;;22.40;68.10;;;;;;4901361;29;20028;-82
2021/08/22 09:04:27;;;;;;;8.27;6.78;;;22.50;68.20;;;;;;4910107;29;20389;-80
2021/08/22 09:06:57;;;;;;;7.50;6.57;;;22.50;68.30;;;;;;4916642;29;20050;-81
2021/08/22 09:09:56;;;;;;;7.32;6.10;;;22.50;68.10;;;;;;4901061;29;20032;-81
2021/08/22 09:13:00;;;;;;;7.78;6.30;;;22.50;68.20;;;;;;4903773;29;20481;-81
2021/08/22 09:16:07;;;;;;;7.18;5.82;;;22.50;68.20;;;;;;4916102;29;20040;-80
2021/08/22 09:19:02;;;;;;;7.57;5.82;;;22.60;68.20;;;;;;4912955;29;20036;-81
2021/08/22 09:21:46;;;;;;;;;;;22.60;68.20;;;;;;4864896;29;20042;-80
2021/08/22 09:24:18;;;;;;;6.13;4.75;;;22.60;67.80;;;;;;4910453;29;19923;-82
2021/08/22 09:27:12;;;;;;;6.97;5.50;;;22.60;67.90;;;;;;4900662;29;20036;-82
2021/08/22 09:30:15;;;;;;;6.18;5.18;;;22.60;68.10;;;;;;4913397;29;20107;-81
2021/08/22 09:33:06;;;;;;;6.72;5.43;;;22.60;68.10;;;;;;4913659;29;20036;-82
2021/08/22 09:36:09;;;;;;;6.55;5.57;;;22.70;68.10;;;;;;4912915;29;20048;-81
2021/08/22 09:39:09;;;;;;;6.55;5.72;;;22.70;68.20;;;;;;4905251;29;20020;-81
2021/08/22 09:42:13;;;;;;;7.63;5.88;;;22.70;68.00;;;;;;4916257;29;20035;-81
2021/08/22 09:45:16;;;;;;;5.70;4.85;;;22.80;68.20;;;;;;4888625;29;20388;-81
2021/08/22 09:48:13;;;;;;;6.35;5.43;;;22.80;68.20;;;;;;4917395;29;20031;-82
2021/08/22 09:51:10;;;;;;;7.00;5.90;;;22.80;68.10;;;;;;4911709;29;20035;-82
2021/08/22 09:54:03;;;;;;;7.07;5.80;;;22.90;68.10;;;;;;4900605;29;20028;-82
2021/08/22 09:57:06;;;;;;;6.07;5.03;;;22.90;68.10;;;;;;4917953;29;20111;-82
2021/08/22 10:00:09;;;;;;;6.93;5.25;;;22.90;68.10;;;;;;4910971;29;20036;-82
2021/08/22 10:03:07;;;;;;;6.22;5.13;;;22.90;68.00;;;;;;4926536;29;20085;-82
2021/08/22 10:06:10;;;;;;;6.30;4.95;;;23.00;68.00;;;;;;4900151;29;20400;-81
2021/08/22 10:08:50;;;;;;;6.35;4.97;;;23.00;68.00;;;;;;4897566;29;20545;-82
2021/08/22 10:11:31;;;;;;;6.03;5.32;;;23.10;67.90;;;;;;4915109;29;20077;-82
2021/08/22 10:13:57;;;;;;;5.88;5.10;;;23.10;67.90;;;;;;4914953;29;20051;-82
2021/08/22 10:16:23;;;;;;;7.55;5.88;;;23.10;67.80;;;;;;4898836;29;20036;-81
2021/08/22 10:18:49;;;;;;;6.45;5.75;;;23.10;67.80;;;;;;4915228;29;20395;-82
2021/08/22 10:21:26;;;;;;;6.47;5.80;;;23.20;67.80;;;;;;4883191;29;20047;-83
2021/08/22 10:23:54;;;;;;;6.47;5.68;;;23.20;67.80;;;;;;4915163;29;20116;-83
2021/08/22 10:26:47;;;;;;;6.32;5.30;;;23.20;67.60;;;;;;4884019;29;20119;-81
2021/08/22 10:29:17;;;;;;;6.90;5.38;;;23.20;67.70;;;;;;4899245;29;20033;-81
2021/08/22 10:31:49;;;;;;;7.18;5.78;;;23.30;67.60;;;;;;4896500;29;20033;-80
2021/08/22 10:34:24;;;;;;;6.30;5.68;;;23.30;67.60;;;;;;4914953;29;20067;-84
2021/08/22 10:36:52;;;;;;;6.15;4.85;;;23.30;67.60;;;;;;4914978;29;20524;-80
2021/08/22 10:39:27;;;;;;;6.30;5.45;;;23.30;67.50;;;;;;4915424;29;20024;-81
2021/08/22 10:41:57;;;;;;;5.90;5.13;;;23.30;67.50;;;;;;4915705;29;20178;-80
2021/08/22 10:44:40;;;;;;;5.80;4.97;;;23.30;67.50;;;;;;4915679;29;20044;-80
2021/08/22 10:47:13;;;;;;;6.13;5.05;;;23.30;67.60;;;;;;4915804;29;20040;-83
2021/08/22 10:49:54;;;;;;;6.63;5.35;;;23.40;67.70;;;;;;4889257;29;20549;-80
2021/08/22 10:52:25;;;;;;;6.38;5.65;;;23.40;67.50;;;;;;4912827;29;20039;-80
2021/08/22 10:55:06;;;;;;;5.88;5.15;;;23.40;67.50;;;;;;4914528;29;20036;-84
2021/08/22 10:57:43;;;;;;;6.63;5.43;;;23.40;67.60;;;;;;4906879;29;20146;-84
2021/08/22 11:00:29;;;;;;;6.90;5.63;;;23.40;68.10;;;;;;4914784;29;20126;-83
2021/08/22 11:03:02;;;;;;;6.63;5.50;;;23.40;67.50;;;;;;4910037;29;20044;-80
2021/08/22 11:05:31;;;;;;;6.65;5.45;;;23.50;67.50;;;;;;4914625;29;20044;-80
2021/08/22 11:08:13;;;;;;;6.03;5.10;;;23.40;67.40;;;;;;4898955;29;20497;-80
2021/08/22 11:10:39;;;;;;;7.30;5.60;;;23.50;67.50;;;;;;4892238;29;20035;-81
2021/08/22 11:13:05;;;;;;;5.82;4.88;;;23.40;67.30;;;;;;4915748;29;20047;-81
2021/08/22 11:15:31;;;;;;;6.13;5.13;;;23.50;67.40;;;;;;4897966;29;20123;-81
2021/08/22 11:18:01;;;;;;;7.03;5.38;;;23.50;67.40;;;;;;4898680;29;20477;-81
2021/08/22 11:20:29;;;;;;;5.78;4.88;;;23.50;67.40;;;;;;4898470;29;20029;-81
2021/08/22 11:23:16;;;;;;;6.35;5.28;;;23.50;67.40;;;;;;4895905;29;20116;-80
2021/08/22 11:25:42;;;;;;;5.43;4.60;;;23.50;67.40;;;;;;4895944;29;20037;-81
2021/08/22 11:28:16;;;;;;;6.03;5.15;;;23.50;67.30;;;;;;4888288;29;20036;-81
2021/08/22 11:30:43;;;;;;;6.07;5.10;;;23.50;67.30;;;;;;4907121;29;20495;-82
2021/08/22 11:33:10;;;;;;;6.57;5.75;;;23.60;67.30;;;;;;4914871;29;20469;-82
2021/08/22 11:35:37;;;;;;;6.43;5.70;;;23.60;67.30;;;;;;4915749;29;20822;-82
2021/08/22 11:38:03;;;;;;;6.18;5.20;;;23.60;67.30;;;;;;4915672;29;20059;-82
2021/08/22 11:40:30;;;;;;;6.55;5.72;;;23.60;67.50;;;;;;4899773;29;20043;-81
2021/08/22 11:42:59;;;;;;;6.13;5.50;;;23.60;67.20;;;;;;4898584;29;20032;-82
2021/08/22 11:45:31;;;;;;;6.18;5.18;;;23.60;67.30;;;;;;4899962;29;20477;-81
2021/08/22 11:47:58;;;;;;;6.53;5.50;;;23.60;67.20;;;;;;4918633;29;20089;-82
2021/08/22 11:50:29;;;;;;;5.43;4.63;;;23.60;67.20;;;;;;4919310;29;20108;-82
2021/08/22 11:52:57;;;;;;;6.13;4.80;;;23.60;67.10;;;;;;4919393;29;20037;-82
2021/08/22 11:55:25;;;;;;;6.10;5.10;;;23.70;67.20;;;;;;4918004;29;20032;-82
2021/08/22 11:58:24;;;;;;;5.40;4.65;;;23.70;67.20;;;;;;4919354;29;20115;-81
2021/08/22 12:00:52;;;;;;;5.63;4.50;;;23.70;67.30;;;;;;4919103;29;20031;-81
2021/08/22 12:03:20;;;;;;;5.50;4.63;;;23.70;67.10;;;;;;4918003;29;20103;-84
2021/08/22 12:06:07;;;;;;;6.00;4.85;;;23.70;67.10;;;;;;4917490;29;20393;-82
2021/08/22 12:08:34;;;;;;;6.05;4.97;;;23.70;67.20;;;;;;4902266;29;20039;-82
2021/08/22 12:11:09;;;;;;;5.85;4.72;;;23.80;67.10;;;;;;4891116;29;20035;-81
2021/08/22 12:13:36;;;;;;;5.60;4.95;;;23.70;67.10;;;;;;4898951;29;20033;-82
2021/08/22 12:16:24;;;;;;;5.47;4.65;;;23.80;67.10;;;;;;4917048;29;20104;-80
2021/08/22 12:18:50;;;;;;;6.20;4.55;;;23.80;67.20;;;;;;4918761;29;20492;-83
2021/08/22 12:21:18;;;;;;;5.10;4.45;;;23.80;67.00;;;;;;4898542;29;20035;-81
2021/08/22 12:23:53;;;;;;;5.43;4.60;;;23.80;67.00;;;;;;4893293;29;20044;-81
2021/08/22 12:26:29;;;;;;;5.43;4.75;;;23.90;67.10;;;;;;4910049;29;20115;-81
2021/08/22 12:28:57;;;;;;;6.13;4.78;;;24.00;67.10;;;;;;4918374;29;20035;-80
2021/08/22 12:31:37;;;;;;;6.22;4.78;;;24.00;67.00;;;;;;4916079;29;21470;-81
2021/08/22 12:34:11;;;;;;;5.10;4.43;;;24.00;67.10;;;;;;4918048;29;20043;-81
2021/08/22 12:36:39;;;;;;;5.25;3.95;;;24.00;67.00;;;;;;4910797;29;20028;-81
2021/08/22 12:39:07;;;;;;;5.38;4.30;;;24.00;67.50;;;;;;4916622;29;20032;-81
2021/08/22 12:41:40;;;;;;;5.15;4.43;;;24.10;66.90;;;;;;4893151;29;20088;-80
2021/08/22 12:44:09;;;;;;;5.30;4.50;;;24.10;66.90;;;;;;4916928;29;20032;-81
2021/08/22 12:46:37;;;;;;;5.13;4.28;;;24.20;66.80;;;;;;4916357;29;20035;-80
2021/08/22 12:49:04;;;;;;;5.22;4.38;;;24.20;66.80;;;;;;4916581;29;20032;-80
2021/08/22 12:51:31;;;;;;;5.93;4.43;;;24.20;66.70;;;;;;4900465;29;20409;-81
2021/08/22 12:53:58;;;;;;;5.55;4.43;;;24.30;66.70;;;;;;4916963;29;20408;-84
2021/08/22 12:56:24;;;;;;;5.20;4.30;;;24.30;66.60;;;;;;4898386;29;20041;-83
2021/08/22 12:58:52;;;;;;;5.32;4.63;;;24.40;66.60;;;;;;4909763;29;20034;-80
2021/08/22 13:01:22;;;;;;;5.15;4.35;;;24.40;66.50;;;;;;4917382;29;20512;-81
2021/08/22 13:03:49;;;;;;;5.25;3.83;;;24.40;66.50;;;;;;4916590;29;20037;-80